sensor_id;sensor_type;location;lat;lon;timestamp;P1;durP1;ratioP1;P2;durP2;ratioP2
74100;SDS011;62462;52.530;21.682;2023-04-24T00:00:28;10.68;;;6.30;;
74100;SDS011;62462;52.530;21.682;2023-04-24T00:02:53;12.02;;;6.60;;
74100;SDS011;62462;52.530;21.682;2023-04-24T00:05:22;11.82;;;7.18;;
74100;SDS011;62462;52.530;21.682;2023-04-24T00:07:48;10.20;;;6.75;;
74100;SDS011;62462;52.530;21.682;2023-04-24T00:10:13;11.15;;;6.78;;
74100;SDS011;62462;52.530;21.682;2023-04-24T00:12:39;9.20;;;6.50;;
74100;SDS011;62462;52.530;21.682;2023-04-24T00:15:05;12.15;;;6.97;;
74100;SDS011;62462;52.530;21.682;2023-04-24T00:17:31;11.35;;;6.90;;
74100;SDS011;62462;52.530;21.682;2023-04-24T00:19:57;12.23;;;7.30;;
74100;SDS011;62462;52.530;21.682;2023-04-24T00:22:29;11.27;;;6.78;;
74100;SDS011;62462;52.530;21.682;2023-04-24T00:24:56;11.45;;;6.75;;
74100;SDS011;62462;52.530;21.682;2023-04-24T00:27:22;9.90;;;6.95;;
74100;SDS011;62462;52.530;21.682;2023-04-24T00:29:48;10.63;;;6.85;;
74100;SDS011;62462;52.530;21.682;2023-04-24T00:32:14;11.30;;;6.88;;
74100;SDS011;62462;52.530;21.682;2023-04-24T00:34:40;12.48;;;6.80;;
74100;SDS011;62462;52.530;21.682;2023-04-24T00:37:06;11.50;;;7.00;;
74100;SDS011;62462;52.530;21.682;2023-04-24T00:39:32;14.93;;;7.53;;
74100;SDS011;62462;52.530;21.682;2023-04-24T00:41:58;18.85;;;7.90;;
74100;SDS011;62462;52.530;21.682;2023-04-24T00:44:24;11.45;;;6.45;;
74100;SDS011;62462;52.530;21.682;2023-04-24T00:46:50;11.68;;;7.20;;
74100;SDS011;62462;52.530;21.682;2023-04-24T00:49:19;14.63;;;6.90;;
74100;SDS011;62462;52.530;21.682;2023-04-24T00:51:48;10.65;;;6.93;;
74100;SDS011;62462;52.530;21.682;2023-04-24T00:54:16;12.77;;;7.18;;
74100;SDS011;62462;52.530;21.682;2023-04-24T00:56:43;10.20;;;6.63;;
74100;SDS011;62462;52.530;21.682;2023-04-24T00:59:10;12.98;;;6.53;;
74100;SDS011;62462;52.530;21.682;2023-04-24T01:01:37;10.55;;;6.20;;
74100;SDS011;62462;52.530;21.682;2023-04-24T01:04:07;12.60;;;6.60;;
74100;SDS011;62462;52.530;21.682;2023-04-24T01:06:35;9.50;;;7.15;;
74100;SDS011;62462;52.530;21.682;2023-04-24T01:09:06;9.40;;;6.50;;
74100;SDS011;62462;52.530;21.682;2023-04-24T01:11:35;11.10;;;6.82;;
74100;SDS011;62462;52.530;21.682;2023-04-24T01:14:01;9.98;;;6.45;;
74100;SDS011;62462;52.530;21.682;2023-04-24T01:16:27;10.05;;;6.25;;
74100;SDS011;62462;52.530;21.682;2023-04-24T01:18:53;10.77;;;6.68;;
74100;SDS011;62462;52.530;21.682;2023-04-24T01:21:19;9.93;;;6.50;;
74100;SDS011;62462;52.530;21.682;2023-04-24T01:23:46;10.85;;;6.43;;
74100;SDS011;62462;52.530;21.682;2023-04-24T01:26:13;9.32;;;6.15;;
74100;SDS011;62462;52.530;21.682;2023-04-24T01:28:41;12.18;;;5.93;;
74100;SDS011;62462;52.530;21.682;2023-04-24T01:31:07;11.07;;;6.75;;
74100;SDS011;62462;52.530;21.682;2023-04-24T01:33:33;9.10;;;6.05;;
74100;SDS011;62462;52.530;21.682;2023-04-24T01:35:59;9.55;;;5.88;;
74100;SDS011;62462;52.530;21.682;2023-04-24T01:38:25;11.38;;;6.18;;
74100;SDS011;62462;52.530;21.682;2023-04-24T01:40:51;10.95;;;6.22;;
74100;SDS011;62462;52.530;21.682;2023-04-24T01:43:17;12.07;;;6.25;;
74100;SDS011;62462;52.530;21.682;2023-04-24T01:45:44;10.90;;;6.45;;
74100;SDS011;62462;52.530;21.682;2023-04-24T01:48:11;13.13;;;6.50;;
74100;SDS011;62462;52.530;21.682;2023-04-24T01:50:37;10.45;;;6.68;;
74100;SDS011;62462;52.530;21.682;2023-04-24T01:53:03;11.57;;;6.35;;
74100;SDS011;62462;52.530;21.682;2023-04-24T01:55:29;12.35;;;6.05;;
74100;SDS011;62462;52.530;21.682;2023-04-24T01:57:55;12.43;;;6.40;;
74100;SDS011;62462;52.530;21.682;2023-04-24T02:00:21;9.52;;;5.90;;
74100;SDS011;62462;52.530;21.682;2023-04-24T02:02:47;12.40;;;6.22;;
74100;SDS011;62462;52.530;21.682;2023-04-24T02:05:13;10.52;;;6.38;;
74100;SDS011;62462;52.530;21.682;2023-04-24T02:07:39;10.82;;;6.88;;
74100;SDS011;62462;52.530;21.682;2023-04-24T02:10:05;12.80;;;6.50;;
74100;SDS011;62462;52.530;21.682;2023-04-24T02:12:32;11.80;;;6.00;;
74100;SDS011;62462;52.530;21.682;2023-04-24T02:14:58;10.43;;;6.13;;
74100;SDS011;62462;52.530;21.682;2023-04-24T02:17:24;10.52;;;6.18;;
74100;SDS011;62462;52.530;21.682;2023-04-24T02:19:49;12.23;;;6.20;;
74100;SDS011;62462;52.530;21.682;2023-04-24T02:22:15;15.32;;;6.28;;
74100;SDS011;62462;52.530;21.682;2023-04-24T02:24:40;10.18;;;6.65;;
74100;SDS011;62462;52.530;21.682;2023-04-24T02:27:06;8.32;;;6.65;;
74100;SDS011;62462;52.530;21.682;2023-04-24T02:29:32;13.43;;;6.63;;
74100;SDS011;62462;52.530;21.682;2023-04-24T02:31:58;10.45;;;6.47;;
74100;SDS011;62462;52.530;21.682;2023-04-24T02:34:24;12.15;;;6.72;;
74100;SDS011;62462;52.530;21.682;2023-04-24T02:36:50;12.73;;;7.25;;
74100;SDS011;62462;52.530;21.682;2023-04-24T02:39:15;11.38;;;6.60;;
74100;SDS011;62462;52.530;21.682;2023-04-24T02:41:42;14.70;;;6.38;;
74100;SDS011;62462;52.530;21.682;2023-04-24T02:44:08;7.85;;;5.65;;
74100;SDS011;62462;52.530;21.682;2023-04-24T02:46:34;11.20;;;6.70;;
74100;SDS011;62462;52.530;21.682;2023-04-24T02:49:00;13.25;;;6.53;;
74100;SDS011;62462;52.530;21.682;2023-04-24T02:51:26;10.85;;;6.40;;
74100;SDS011;62462;52.530;21.682;2023-04-24T02:53:52;12.40;;;6.72;;
74100;SDS011;62462;52.530;21.682;2023-04-24T02:56:18;11.27;;;6.70;;
74100;SDS011;62462;52.530;21.682;2023-04-24T02:58:43;10.45;;;6.88;;
74100;SDS011;62462;52.530;21.682;2023-04-24T03:01:09;10.80;;;6.40;;
74100;SDS011;62462;52.530;21.682;2023-04-24T03:03:36;13.40;;;7.90;;
74100;SDS011;62462;52.530;21.682;2023-04-24T03:06:02;18.02;;;8.50;;
74100;SDS011;62462;52.530;21.682;2023-04-24T03:08:31;15.82;;;7.70;;
74100;SDS011;62462;52.530;21.682;2023-04-24T03:10:57;13.38;;;7.45;;
74100;SDS011;62462;52.530;21.682;2023-04-24T03:13:23;10.75;;;6.93;;
74100;SDS011;62462;52.530;21.682;2023-04-24T03:15:48;20.48;;;7.47;;
74100;SDS011;62462;52.530;21.682;2023-04-24T03:18:15;15.82;;;7.05;;
74100;SDS011;62462;52.530;21.682;2023-04-24T03:20:40;12.15;;;6.82;;
74100;SDS011;62462;52.530;21.682;2023-04-24T03:23:06;18.95;;;7.18;;
74100;SDS011;62462;52.530;21.682;2023-04-24T03:25:32;12.82;;;7.82;;
74100;SDS011;62462;52.530;21.682;2023-04-24T03:27:58;14.07;;;6.45;;
74100;SDS011;62462;52.530;21.682;2023-04-24T03:30:23;15.88;;;7.30;;
74100;SDS011;62462;52.530;21.682;2023-04-24T03:32:49;13.73;;;7.07;;
74100;SDS011;62462;52.530;21.682;2023-04-24T03:35:15;13.48;;;7.00;;
74100;SDS011;62462;52.530;21.682;2023-04-24T03:37:40;14.48;;;7.43;;
74100;SDS011;62462;52.530;21.682;2023-04-24T03:40:06;14.80;;;7.47;;
74100;SDS011;62462;52.530;21.682;2023-04-24T03:42:33;12.95;;;8.35;;
74100;SDS011;62462;52.530;21.682;2023-04-24T03:44:58;18.40;;;8.77;;
74100;SDS011;62462;52.530;21.682;2023-04-24T03:47:24;16.75;;;8.20;;
74100;SDS011;62462;52.530;21.682;2023-04-24T03:49:50;17.58;;;8.82;;
74100;SDS011;62462;52.530;21.682;2023-04-24T03:52:16;13.95;;;8.52;;
74100;SDS011;62462;52.530;21.682;2023-04-24T03:54:42;18.00;;;8.10;;
74100;SDS011;62462;52.530;21.682;2023-04-24T03:57:08;12.50;;;7.55;;
74100;SDS011;62462;52.530;21.682;2023-04-24T03:59:33;15.48;;;8.13;;
74100;SDS011;62462;52.530;21.682;2023-04-24T04:01:59;14.23;;;7.50;;
74100;SDS011;62462;52.530;21.682;2023-04-24T04:04:25;16.35;;;8.77;;
74100;SDS011;62462;52.530;21.682;2023-04-24T04:06:50;13.23;;;7.72;;
74100;SDS011;62462;52.530;21.682;2023-04-24T04:09:17;14.10;;;8.70;;
74100;SDS011;62462;52.530;21.682;2023-04-24T04:11:42;15.13;;;8.38;;
74100;SDS011;62462;52.530;21.682;2023-04-24T04:14:08;17.17;;;7.60;;
74100;SDS011;62462;52.530;21.682;2023-04-24T04:16:34;14.68;;;7.60;;
74100;SDS011;62462;52.530;21.682;2023-04-24T04:19:01;10.70;;;6.90;;
74100;SDS011;62462;52.530;21.682;2023-04-24T04:21:28;17.13;;;7.25;;
74100;SDS011;62462;52.530;21.682;2023-04-24T04:23:54;12.60;;;7.25;;
74100;SDS011;62462;52.530;21.682;2023-04-24T04:26:19;13.93;;;7.55;;
74100;SDS011;62462;52.530;21.682;2023-04-24T04:28:46;12.43;;;7.60;;
74100;SDS011;62462;52.530;21.682;2023-04-24T04:31:12;14.50;;;7.80;;
74100;SDS011;62462;52.530;21.682;2023-04-24T04:33:38;14.48;;;7.00;;
74100;SDS011;62462;52.530;21.682;2023-04-24T04:36:04;11.48;;;7.50;;
74100;SDS011;62462;52.530;21.682;2023-04-24T04:38:30;14.25;;;7.45;;
74100;SDS011;62462;52.530;21.682;2023-04-24T04:40:56;11.60;;;7.68;;
74100;SDS011;62462;52.530;21.682;2023-04-24T04:43:24;12.43;;;7.85;;
74100;SDS011;62462;52.530;21.682;2023-04-24T04:45:50;14.30;;;7.65;;
74100;SDS011;62462;52.530;21.682;2023-04-24T04:48:17;15.18;;;8.45;;
74100;SDS011;62462;52.530;21.682;2023-04-24T04:50:43;16.38;;;8.48;;
74100;SDS011;62462;52.530;21.682;2023-04-24T04:53:09;11.60;;;7.75;;
74100;SDS011;62462;52.530;21.682;2023-04-24T04:55:35;13.38;;;7.97;;
74100;SDS011;62462;52.530;21.682;2023-04-24T04:58:02;11.40;;;7.65;;
74100;SDS011;62462;52.530;21.682;2023-04-24T05:00:27;13.60;;;8.27;;
74100;SDS011;62462;52.530;21.682;2023-04-24T05:02:58;13.27;;;7.75;;
74100;SDS011;62462;52.530;21.682;2023-04-24T05:05:25;12.60;;;7.72;;
74100;SDS011;62462;52.530;21.682;2023-04-24T05:07:51;16.85;;;7.57;;
74100;SDS011;62462;52.530;21.682;2023-04-24T05:10:16;14.50;;;7.65;;
74100;SDS011;62462;52.530;21.682;2023-04-24T05:12:42;12.68;;;7.60;;
74100;SDS011;62462;52.530;21.682;2023-04-24T05:15:08;12.15;;;8.00;;
74100;SDS011;62462;52.530;21.682;2023-04-24T05:17:34;11.18;;;7.45;;
74100;SDS011;62462;52.530;21.682;2023-04-24T05:20:00;12.57;;;7.78;;
74100;SDS011;62462;52.530;21.682;2023-04-24T05:22:26;10.63;;;7.50;;
74100;SDS011;62462;52.530;21.682;2023-04-24T05:24:52;11.07;;;6.53;;
74100;SDS011;62462;52.530;21.682;2023-04-24T05:27:18;11.18;;;6.85;;
74100;SDS011;62462;52.530;21.682;2023-04-24T05:29:44;12.18;;;7.22;;
74100;SDS011;62462;52.530;21.682;2023-04-24T05:32:10;10.70;;;7.07;;
74100;SDS011;62462;52.530;21.682;2023-04-24T05:34:36;12.50;;;7.00;;
74100;SDS011;62462;52.530;21.682;2023-04-24T05:37:01;9.43;;;7.05;;
74100;SDS011;62462;52.530;21.682;2023-04-24T05:39:28;9.93;;;6.97;;
74100;SDS011;62462;52.530;21.682;2023-04-24T05:41:54;11.65;;;6.97;;
74100;SDS011;62462;52.530;21.682;2023-04-24T05:44:22;14.93;;;7.45;;
74100;SDS011;62462;52.530;21.682;2023-04-24T05:46:48;13.15;;;7.75;;
74100;SDS011;62462;52.530;21.682;2023-04-24T05:49:14;13.10;;;7.40;;
74100;SDS011;62462;52.530;21.682;2023-04-24T05:51:40;14.90;;;8.32;;
74100;SDS011;62462;52.530;21.682;2023-04-24T05:54:06;11.63;;;7.25;;
74100;SDS011;62462;52.530;21.682;2023-04-24T05:56:32;11.98;;;7.45;;
74100;SDS011;62462;52.530;21.682;2023-04-24T05:58:57;12.52;;;7.45;;
74100;SDS011;62462;52.530;21.682;2023-04-24T06:01:23;10.10;;;6.68;;
74100;SDS011;62462;52.530;21.682;2023-04-24T06:03:50;12.98;;;7.97;;
74100;SDS011;62462;52.530;21.682;2023-04-24T06:06:15;11.93;;;7.40;;
74100;SDS011;62462;52.530;21.682;2023-04-24T06:08:41;14.23;;;8.65;;
74100;SDS011;62462;52.530;21.682;2023-04-24T06:11:09;14.82;;;7.82;;
74100;SDS011;62462;52.530;21.682;2023-04-24T06:13:34;10.32;;;7.20;;
74100;SDS011;62462;52.530;21.682;2023-04-24T06:16:00;9.82;;;7.00;;
74100;SDS011;62462;52.530;21.682;2023-04-24T06:18:26;11.95;;;7.13;;
74100;SDS011;62462;52.530;21.682;2023-04-24T06:20:52;12.93;;;6.50;;
74100;SDS011;62462;52.530;21.682;2023-04-24T06:23:18;10.40;;;6.63;;
74100;SDS011;62462;52.530;21.682;2023-04-24T06:25:43;11.18;;;6.75;;
74100;SDS011;62462;52.530;21.682;2023-04-24T06:28:09;8.57;;;6.63;;
74100;SDS011;62462;52.530;21.682;2023-04-24T06:30:35;14.10;;;7.90;;
74100;SDS011;62462;52.530;21.682;2023-04-24T06:33:01;11.15;;;6.90;;
74100;SDS011;62462;52.530;21.682;2023-04-24T06:35:26;10.40;;;7.10;;
74100;SDS011;62462;52.530;21.682;2023-04-24T06:37:52;9.60;;;6.90;;
74100;SDS011;62462;52.530;21.682;2023-04-24T06:40:18;11.38;;;7.38;;
74100;SDS011;62462;52.530;21.682;2023-04-24T06:42:44;10.50;;;7.00;;
74100;SDS011;62462;52.530;21.682;2023-04-24T06:45:10;9.80;;;6.60;;
74100;SDS011;62462;52.530;21.682;2023-04-24T06:47:36;11.68;;;6.53;;
74100;SDS011;62462;52.530;21.682;2023-04-24T06:50:03;8.10;;;6.30;;
74100;SDS011;62462;52.530;21.682;2023-04-24T06:52:29;11.45;;;6.40;;
74100;SDS011;62462;52.530;21.682;2023-04-24T06:55:01;8.18;;;5.93;;
74100;SDS011;62462;52.530;21.682;2023-04-24T06:57:31;12.75;;;6.43;;
74100;SDS011;62462;52.530;21.682;2023-04-24T06:59:57;12.10;;;6.38;;
74100;SDS011;62462;52.530;21.682;2023-04-24T07:02:23;10.85;;;6.93;;
74100;SDS011;62462;52.530;21.682;2023-04-24T07:04:48;9.57;;;5.95;;
74100;SDS011;62462;52.530;21.682;2023-04-24T07:07:14;10.82;;;7.03;;
74100;SDS011;62462;52.530;21.682;2023-04-24T07:09:41;9.07;;;6.60;;
74100;SDS011;62462;52.530;21.682;2023-04-24T07:12:07;8.07;;;6.10;;
74100;SDS011;62462;52.530;21.682;2023-04-24T07:14:35;9.02;;;5.78;;
74100;SDS011;62462;52.530;21.682;2023-04-24T07:17:02;8.25;;;5.90;;
74100;SDS011;62462;52.530;21.682;2023-04-24T07:19:29;11.70;;;6.68;;
74100;SDS011;62462;52.530;21.682;2023-04-24T07:21:54;9.27;;;6.30;;
74100;SDS011;62462;52.530;21.682;2023-04-24T07:24:20;9.85;;;7.00;;
74100;SDS011;62462;52.530;21.682;2023-04-24T07:26:46;10.80;;;7.18;;
74100;SDS011;62462;52.530;21.682;2023-04-24T07:29:12;10.55;;;6.53;;
74100;SDS011;62462;52.530;21.682;2023-04-24T07:31:39;11.80;;;6.75;;
74100;SDS011;62462;52.530;21.682;2023-04-24T07:34:06;12.02;;;6.60;;
74100;SDS011;62462;52.530;21.682;2023-04-24T07:36:31;9.35;;;6.35;;
74100;SDS011;62462;52.530;21.682;2023-04-24T07:38:57;12.82;;;6.97;;
74100;SDS011;62462;52.530;21.682;2023-04-24T07:41:23;12.55;;;6.32;;
74100;SDS011;62462;52.530;21.682;2023-04-24T07:43:50;12.02;;;6.75;;
74100;SDS011;62462;52.530;21.682;2023-04-24T07:46:16;11.98;;;6.43;;
74100;SDS011;62462;52.530;21.682;2023-04-24T07:48:42;10.77;;;6.28;;
74100;SDS011;62462;52.530;21.682;2023-04-24T07:51:07;9.68;;;6.53;;
74100;SDS011;62462;52.530;21.682;2023-04-24T07:53:36;8.48;;;6.13;;
74100;SDS011;62462;52.530;21.682;2023-04-24T07:56:01;11.23;;;6.68;;
74100;SDS011;62462;52.530;21.682;2023-04-24T07:58:27;9.77;;;6.43;;
74100;SDS011;62462;52.530;21.682;2023-04-24T08:00:53;13.25;;;5.88;;
74100;SDS011;62462;52.530;21.682;2023-04-24T08:03:18;8.20;;;5.60;;
74100;SDS011;62462;52.530;21.682;2023-04-24T08:05:45;11.52;;;5.72;;
74100;SDS011;62462;52.530;21.682;2023-04-24T08:08:11;10.80;;;5.97;;
74100;SDS011;62462;52.530;21.682;2023-04-24T08:10:37;8.07;;;5.65;;
74100;SDS011;62462;52.530;21.682;2023-04-24T08:13:03;9.13;;;6.18;;
74100;SDS011;62462;52.530;21.682;2023-04-24T08:15:28;10.38;;;6.18;;
74100;SDS011;62462;52.530;21.682;2023-04-24T08:17:54;9.27;;;6.07;;
74100;SDS011;62462;52.530;21.682;2023-04-24T08:20:20;13.02;;;6.70;;
74100;SDS011;62462;52.530;21.682;2023-04-24T08:22:46;8.88;;;6.00;;
74100;SDS011;62462;52.530;21.682;2023-04-24T08:25:13;9.77;;;5.70;;
74100;SDS011;62462;52.530;21.682;2023-04-24T08:27:39;9.73;;;5.82;;
74100;SDS011;62462;52.530;21.682;2023-04-24T08:30:05;9.38;;;6.05;;
74100;SDS011;62462;52.530;21.682;2023-04-24T08:32:32;8.57;;;5.80;;
74100;SDS011;62462;52.530;21.682;2023-04-24T08:34:58;10.77;;;5.97;;
74100;SDS011;62462;52.530;21.682;2023-04-24T08:37:25;11.95;;;6.65;;
74100;SDS011;62462;52.530;21.682;2023-04-24T08:39:52;11.35;;;5.22;;
74100;SDS011;62462;52.530;21.682;2023-04-24T08:42:19;11.32;;;5.75;;
74100;SDS011;62462;52.530;21.682;2023-04-24T08:44:45;6.88;;;5.18;;
74100;SDS011;62462;52.530;21.682;2023-04-24T08:47:13;13.63;;;5.50;;
74100;SDS011;62462;52.530;21.682;2023-04-24T08:49:41;6.13;;;4.78;;
74100;SDS011;62462;52.530;21.682;2023-04-24T08:52:08;9.38;;;5.78;;
74100;SDS011;62462;52.530;21.682;2023-04-24T08:54:49;11.07;;;5.15;;
74100;SDS011;62462;52.530;21.682;2023-04-24T08:57:15;8.40;;;4.93;;
74100;SDS011;62462;52.530;21.682;2023-04-24T08:59:41;10.25;;;5.43;;
74100;SDS011;62462;52.530;21.682;2023-04-24T09:02:09;7.97;;;5.40;;
74100;SDS011;62462;52.530;21.682;2023-04-24T09:04:36;11.68;;;5.40;;
74100;SDS011;62462;52.530;21.682;2023-04-24T09:07:02;9.10;;;5.15;;
74100;SDS011;62462;52.530;21.682;2023-04-24T09:09:31;10.75;;;4.97;;
74100;SDS011;62462;52.530;21.682;2023-04-24T09:11:58;7.43;;;4.85;;
74100;SDS011;62462;52.530;21.682;2023-04-24T09:14:24;10.70;;;5.57;;
74100;SDS011;62462;52.530;21.682;2023-04-24T09:16:51;8.68;;;4.78;;
74100;SDS011;62462;52.530;21.682;2023-04-24T09:19:16;9.60;;;5.28;;
74100;SDS011;62462;52.530;21.682;2023-04-24T09:21:45;9.20;;;5.18;;
74100;SDS011;62462;52.530;21.682;2023-04-24T09:24:15;8.52;;;5.30;;
74100;SDS011;62462;52.530;21.682;2023-04-24T09:26:47;10.15;;;5.07;;
74100;SDS011;62462;52.530;21.682;2023-04-24T09:29:15;11.32;;;4.88;;
74100;SDS011;62462;52.530;21.682;2023-04-24T09:31:42;6.30;;;4.70;;
74100;SDS011;62462;52.530;21.682;2023-04-24T09:34:08;5.60;;;4.18;;
74100;SDS011;62462;52.530;21.682;2023-04-24T09:36:34;11.35;;;5.80;;
74100;SDS011;62462;52.530;21.682;2023-04-24T09:39:04;8.75;;;5.28;;
74100;SDS011;62462;52.530;21.682;2023-04-24T09:41:33;8.15;;;4.80;;
74100;SDS011;62462;52.530;21.682;2023-04-24T09:44:18;7.30;;;4.53;;
74100;SDS011;62462;52.530;21.682;2023-04-24T09:47:04;11.80;;;4.32;;
74100;SDS011;62462;52.530;21.682;2023-04-24T09:49:35;5.57;;;4.50;;
74100;SDS011;62462;52.530;21.682;2023-04-24T09:52:08;7.30;;;4.75;;
74100;SDS011;62462;52.530;21.682;2023-04-24T09:54:36;10.48;;;4.80;;
74100;SDS011;62462;52.530;21.682;2023-04-24T09:57:02;5.53;;;4.60;;
74100;SDS011;62462;52.530;21.682;2023-04-24T09:59:28;6.45;;;4.93;;
74100;SDS011;62462;52.530;21.682;2023-04-24T10:01:55;10.88;;;5.07;;
74100;SDS011;62462;52.530;21.682;2023-04-24T10:04:23;6.30;;;4.75;;
74100;SDS011;62462;52.530;21.682;2023-04-24T10:06:51;10.05;;;5.13;;
74100;SDS011;62462;52.530;21.682;2023-04-24T10:09:19;7.22;;;4.75;;
74100;SDS011;62462;52.530;21.682;2023-04-24T10:11:48;8.65;;;4.50;;
74100;SDS011;62462;52.530;21.682;2023-04-24T10:14:16;7.47;;;4.50;;
74100;SDS011;62462;52.530;21.682;2023-04-24T10:16:44;8.93;;;4.95;;
74100;SDS011;62462;52.530;21.682;2023-04-24T10:19:12;6.40;;;4.10;;
74100;SDS011;62462;52.530;21.682;2023-04-24T10:21:40;6.28;;;4.68;;
74100;SDS011;62462;52.530;21.682;2023-04-24T10:24:15;7.65;;;4.60;;
74100;SDS011;62462;52.530;21.682;2023-04-24T10:26:43;11.90;;;4.78;;
74100;SDS011;62462;52.530;21.682;2023-04-24T10:29:11;7.63;;;4.78;;
74100;SDS011;62462;52.530;21.682;2023-04-24T10:31:40;6.20;;;4.55;;
74100;SDS011;62462;52.530;21.682;2023-04-24T10:34:07;6.28;;;4.50;;
74100;SDS011;62462;52.530;21.682;2023-04-24T10:36:34;12.23;;;4.60;;
74100;SDS011;62462;52.530;21.682;2023-04-24T10:39:03;7.35;;;5.15;;
74100;SDS011;62462;52.530;21.682;2023-04-24T10:41:33;8.98;;;4.68;;
74100;SDS011;62462;52.530;21.682;2023-04-24T10:44:05;9.18;;;4.57;;
74100;SDS011;62462;52.530;21.682;2023-04-24T10:46:35;6.45;;;3.92;;
74100;SDS011;62462;52.530;21.682;2023-04-24T10:49:05;9.27;;;4.25;;
74100;SDS011;62462;52.530;21.682;2023-04-24T10:54:24;9.02;;;4.38;;
74100;SDS011;62462;52.530;21.682;2023-04-24T10:56:51;7.55;;;4.38;;
74100;SDS011;62462;52.530;21.682;2023-04-24T10:59:24;6.45;;;4.07;;
74100;SDS011;62462;52.530;21.682;2023-04-24T11:01:54;6.85;;;4.15;;
74100;SDS011;62462;52.530;21.682;2023-04-24T11:04:32;7.57;;;4.30;;
74100;SDS011;62462;52.530;21.682;2023-04-24T11:06:58;6.72;;;4.00;;
74100;SDS011;62462;52.530;21.682;2023-04-24T11:09:28;7.35;;;4.50;;
74100;SDS011;62462;52.530;21.682;2023-04-24T11:12:03;7.03;;;4.00;;
74100;SDS011;62462;52.530;21.682;2023-04-24T11:17:35;7.63;;;4.18;;
74100;SDS011;62462;52.530;21.682;2023-04-24T11:20:03;5.15;;;4.13;;
74100;SDS011;62462;52.530;21.682;2023-04-24T11:22:32;8.43;;;4.03;;
74100;SDS011;62462;52.530;21.682;2023-04-24T11:25:02;9.70;;;4.35;;
74100;SDS011;62462;52.530;21.682;2023-04-24T11:27:30;7.47;;;4.07;;
74100;SDS011;62462;52.530;21.682;2023-04-24T11:34:50;6.93;;;4.20;;
74100;SDS011;62462;52.530;21.682;2023-04-24T11:37:17;6.70;;;4.38;;
74100;SDS011;62462;52.530;21.682;2023-04-24T11:39:43;7.03;;;3.83;;
74100;SDS011;62462;52.530;21.682;2023-04-24T11:42:09;6.75;;;4.22;;
74100;SDS011;62462;52.530;21.682;2023-04-24T11:44:35;5.75;;;4.32;;
74100;SDS011;62462;52.530;21.682;2023-04-24T11:47:06;7.00;;;4.07;;
74100;SDS011;62462;52.530;21.682;2023-04-24T11:49:33;4.60;;;3.92;;
74100;SDS011;62462;52.530;21.682;2023-04-24T11:52:01;7.88;;;3.90;;
74100;SDS011;62462;52.530;21.682;2023-04-24T11:54:27;9.70;;;3.90;;
74100;SDS011;62462;52.530;21.682;2023-04-24T11:56:53;8.23;;;4.20;;
74100;SDS011;62462;52.530;21.682;2023-04-24T11:59:18;7.97;;;4.95;;
74100;SDS011;62462;52.530;21.682;2023-04-24T12:01:45;7.07;;;4.10;;
74100;SDS011;62462;52.530;21.682;2023-04-24T12:04:11;8.32;;;4.13;;
74100;SDS011;62462;52.530;21.682;2023-04-24T12:06:37;7.05;;;4.28;;
74100;SDS011;62462;52.530;21.682;2023-04-24T12:09:03;8.77;;;4.22;;
74100;SDS011;62462;52.530;21.682;2023-04-24T12:11:29;10.18;;;4.18;;
74100;SDS011;62462;52.530;21.682;2023-04-24T12:13:55;9.27;;;3.70;;
74100;SDS011;62462;52.530;21.682;2023-04-24T12:16:23;4.93;;;3.63;;
74100;SDS011;62462;52.530;21.682;2023-04-24T12:18:51;9.10;;;3.97;;
74100;SDS011;62462;52.530;21.682;2023-04-24T12:21:20;4.20;;;3.30;;
74100;SDS011;62462;52.530;21.682;2023-04-24T12:23:48;14.52;;;4.25;;
74100;SDS011;62462;52.530;21.682;2023-04-24T12:26:20;7.03;;;3.75;;
74100;SDS011;62462;52.530;21.682;2023-04-24T12:28:47;6.10;;;3.90;;
74100;SDS011;62462;52.530;21.682;2023-04-24T12:31:15;7.50;;;3.85;;
74100;SDS011;62462;52.530;21.682;2023-04-24T12:33:41;5.57;;;4.15;;
74100;SDS011;62462;52.530;21.682;2023-04-24T12:36:09;8.00;;;3.78;;
74100;SDS011;62462;52.530;21.682;2023-04-24T12:38:37;7.10;;;3.80;;
74100;SDS011;62462;52.530;21.682;2023-04-24T12:41:09;9.75;;;4.38;;
74100;SDS011;62462;52.530;21.682;2023-04-24T12:43:36;6.57;;;4.00;;
74100;SDS011;62462;52.530;21.682;2023-04-24T12:46:03;10.05;;;4.53;;
74100;SDS011;62462;52.530;21.682;2023-04-24T12:48:29;4.55;;;3.42;;
74100;SDS011;62462;52.530;21.682;2023-04-24T12:50:58;4.90;;;3.50;;
74100;SDS011;62462;52.530;21.682;2023-04-24T12:53:27;4.30;;;3.47;;
74100;SDS011;62462;52.530;21.682;2023-04-24T12:55:55;8.40;;;3.90;;
74100;SDS011;62462;52.530;21.682;2023-04-24T12:58:21;9.55;;;3.50;;
74100;SDS011;62462;52.530;21.682;2023-04-24T13:00:47;6.50;;;3.35;;
74100;SDS011;62462;52.530;21.682;2023-04-24T13:03:13;8.85;;;4.32;;
74100;SDS011;62462;52.530;21.682;2023-04-24T13:05:39;9.20;;;3.70;;
74100;SDS011;62462;52.530;21.682;2023-04-24T13:08:07;6.45;;;4.05;;
74100;SDS011;62462;52.530;21.682;2023-04-24T13:10:33;6.95;;;3.80;;
74100;SDS011;62462;52.530;21.682;2023-04-24T13:12:59;10.18;;;4.18;;
74100;SDS011;62462;52.530;21.682;2023-04-24T13:15:25;4.88;;;3.75;;
74100;SDS011;62462;52.530;21.682;2023-04-24T13:17:51;4.70;;;3.33;;
74100;SDS011;62462;52.530;21.682;2023-04-24T13:20:17;8.45;;;3.70;;
74100;SDS011;62462;52.530;21.682;2023-04-24T13:22:43;7.10;;;3.95;;
74100;SDS011;62462;52.530;21.682;2023-04-24T13:25:09;5.90;;;3.83;;
74100;SDS011;62462;52.530;21.682;2023-04-24T13:27:35;9.50;;;3.55;;
74100;SDS011;62462;52.530;21.682;2023-04-24T13:30:03;4.90;;;3.70;;
74100;SDS011;62462;52.530;21.682;2023-04-24T13:32:29;9.02;;;3.40;;
74100;SDS011;62462;52.530;21.682;2023-04-24T13:34:54;5.75;;;3.70;;
74100;SDS011;62462;52.530;21.682;2023-04-24T13:37:21;4.88;;;3.60;;
74100;SDS011;62462;52.530;21.682;2023-04-24T13:39:47;12.35;;;3.97;;
74100;SDS011;62462;52.530;21.682;2023-04-24T13:42:13;7.18;;;3.53;;
74100;SDS011;62462;52.530;21.682;2023-04-24T13:44:39;10.23;;;3.80;;
74100;SDS011;62462;52.530;21.682;2023-04-24T13:47:05;7.80;;;3.60;;
74100;SDS011;62462;52.530;21.682;2023-04-24T13:49:31;8.93;;;3.80;;
74100;SDS011;62462;52.530;21.682;2023-04-24T13:51:57;7.63;;;3.70;;
74100;SDS011;62462;52.530;21.682;2023-04-24T13:54:23;8.73;;;4.15;;
74100;SDS011;62462;52.530;21.682;2023-04-24T13:56:50;7.43;;;4.00;;
74100;SDS011;62462;52.530;21.682;2023-04-24T13:59:16;6.82;;;3.63;;
74100;SDS011;62462;52.530;21.682;2023-04-24T14:01:43;7.43;;;3.47;;
74100;SDS011;62462;52.530;21.682;2023-04-24T14:04:10;6.57;;;3.72;;
74100;SDS011;62462;52.530;21.682;2023-04-24T14:06:36;3.85;;;3.40;;
74100;SDS011;62462;52.530;21.682;2023-04-24T14:09:01;7.93;;;4.18;;
74100;SDS011;62462;52.530;21.682;2023-04-24T14:11:27;4.88;;;3.90;;
74100;SDS011;62462;52.530;21.682;2023-04-24T14:13:54;8.82;;;3.97;;
74100;SDS011;62462;52.530;21.682;2023-04-24T14:16:23;11.35;;;3.90;;
74100;SDS011;62462;52.530;21.682;2023-04-24T14:18:48;8.60;;;4.13;;
74100;SDS011;62462;52.530;21.682;2023-04-24T14:21:15;7.60;;;4.00;;
74100;SDS011;62462;52.530;21.682;2023-04-24T14:23:41;6.82;;;3.70;;
74100;SDS011;62462;52.530;21.682;2023-04-24T14:26:07;6.70;;;4.28;;
74100;SDS011;62462;52.530;21.682;2023-04-24T14:28:33;7.35;;;3.67;;
74100;SDS011;62462;52.530;21.682;2023-04-24T14:30:59;10.77;;;4.15;;
74100;SDS011;62462;52.530;21.682;2023-04-24T14:33:25;8.13;;;4.10;;